Time;durP1;ratioP1;P1;durP2;ratioP2;P2;SDS_P1;SDS_P2;PMS_P1;PMS_P2;Temp;Humidity;BMP_temperature;BMP_pressure;BME280_temperature;BME280_humidity;BME280_pressure;Samples;Min_cycle;Max_cycle;Signal;HPM_P1;HPM_P2
2021/12/05 00:20:44;0.00;0.00;0.62;0.00;0.00;0.62;1.70;0.93;;;20.80;27.20;;;;;;2265164;61;20385;-63
2021/12/05 00:23:46;0.00;0.00;0.62;0.00;0.00;0.62;2.00;0.80;;;20.80;27.30;;;;;;2265544;61;20415;-64
2021/12/05 00:26:34;0.00;0.00;0.62;0.00;0.00;0.62;1.30;0.80;;;20.80;27.20;;;;;;2265666;61;20593;-63
2021/12/05 00:29:28;0.00;0.00;0.62;0.00;0.00;0.62;1.20;0.70;;;20.80;27.30;;;;;;2265459;61;20619;-64
2021/12/05 00:32:21;0.00;0.00;0.62;0.00;0.00;0.62;1.30;0.80;;;20.80;27.30;;;;;;2265558;61;20356;-63
2021/12/05 00:39:01;0.00;0.00;0.62;0.00;0.00;0.62;2.17;0.83;;;20.80;27.20;;;;;;2265569;61;20415;-63
2021/12/05 00:50:59;0.00;0.00;0.62;0.00;0.00;0.62;1.33;0.70;;;20.80;27.20;;;;;;2265094;61;20634;-64
2021/12/05 00:54:31;0.00;0.00;0.62;0.00;0.00;0.62;1.30;0.80;;;20.80;27.20;;;;;;2262372;61;20369;-62
2021/12/05 01:00:30;0.00;0.00;0.62;0.00;0.00;0.62;1.40;0.83;;;20.80;27.20;;;;;;2262141;61;20423;-63
2021/12/05 01:06:50;0.00;0.00;0.62;0.00;0.00;0.62;1.20;0.70;;;20.80;27.20;;;;;;2262173;61;20353;-62
2021/12/05 01:12:42;0.00;0.00;0.62;0.00;0.00;0.62;1.87;0.93;;;20.80;27.20;;;;;;2265210;61;20368;-65
2021/12/05 01:15:29;0.00;0.00;0.62;0.00;0.00;0.62;1.20;0.70;;;20.80;27.20;;;;;;2262443;61;20425;-65
2021/12/05 01:18:17;0.00;0.00;0.62;0.00;0.00;0.62;1.43;0.80;;;20.80;27.20;;;;;;2262256;61;20364;-63
2021/12/05 01:21:12;0.00;0.00;0.62;0.00;0.00;0.62;1.40;0.90;;;20.80;27.20;;;;;;2262111;61;20608;-65
2021/12/05 01:24:17;0.00;0.00;0.62;0.00;0.00;0.62;1.40;0.90;;;20.80;27.20;;;;;;2265261;61;20364;-62
2021/12/05 01:30:05;0.00;0.00;0.62;0.00;0.00;0.62;1.60;0.87;;;20.80;27.20;;;;;;2262161;61;20384;-64
2021/12/05 01:46:01;0.00;0.00;0.62;0.00;0.00;0.62;1.30;0.83;;;20.80;27.20;;;;;;2262437;61;20446;-64
2021/12/05 01:54:31;0.00;0.00;0.62;0.00;0.00;0.62;1.30;0.90;;;20.80;27.20;;;;;;2262679;61;20729;-63
2021/12/05 02:00:59;0.00;0.00;0.62;0.00;0.00;0.62;1.50;0.83;;;20.80;27.20;;;;;;2262664;61;20606;-63
2021/12/05 02:10:41;0.00;0.00;0.62;0.00;0.00;0.62;3.80;0.80;;;20.90;27.20;;;;;;2262727;61;20381;-63
2021/12/05 02:31:16;0.00;0.00;0.62;0.00;0.00;0.62;1.23;0.73;;;20.90;27.40;;;;;;2262189;61;20377;-62
2021/12/05 02:39:16;0.00;0.00;0.62;0.00;0.00;0.62;1.90;0.80;;;20.90;27.30;;;;;;2262197;61;20346;-64
2021/12/05 02:41:45;0.00;0.00;0.62;0.00;0.00;0.62;1.63;0.90;;;20.90;27.30;;;;;;2265605;61;20737;-61
2021/12/05 02:46:46;0.00;0.00;0.62;0.00;0.00;0.62;1.50;0.80;;;20.90;27.30;;;;;;2265899;61;20374;-63
2021/12/05 02:49:15;0.00;0.00;0.62;0.00;0.00;0.62;2.90;1.03;;;20.90;27.30;;;;;;2261795;61;20418;-63
2021/12/05 02:51:51;0.00;0.00;0.62;0.00;0.00;0.62;1.50;0.87;;;20.90;27.20;;;;;;2262091;61;20347;-65
2021/12/05 02:54:22;0.00;0.00;0.62;0.00;0.00;0.62;2.67;1.20;;;20.90;27.20;;;;;;2265929;61;20757;-62
2021/12/05 02:56:50;0.00;0.00;0.62;0.00;0.00;0.62;2.53;1.90;;;20.90;27.30;;;;;;2265391;61;20733;-63
2021/12/05 03:01:56;0.00;0.00;0.62;0.00;0.00;0.62;3.97;1.77;;;20.90;27.20;;;;;;2262268;61;20417;-62
2021/12/05 03:04:24;0.00;0.00;0.62;0.00;0.00;0.62;3.80;2.57;;;20.90;27.20;;;;;;2265429;61;20349;-62
2021/12/05 03:06:53;0.00;0.00;0.62;0.00;0.00;0.62;6.00;2.50;;;20.90;27.10;;;;;;2265853;61;20426;-63
2021/12/05 03:09:23;0.00;0.00;0.62;0.00;0.00;0.62;3.20;2.40;;;20.90;27.00;;;;;;2262139;61;20349;-63
2021/12/05 03:11:52;0.00;0.00;0.62;0.00;0.00;0.62;4.47;3.30;;;20.90;26.90;;;;;;2265389;61;20378;-62
2021/12/05 03:14:19;0.00;0.00;0.62;0.00;0.00;0.62;4.60;3.13;;;20.80;26.90;;;;;;2261963;61;20436;-63
2021/12/05 03:16:46;0.00;0.00;0.62;0.00;0.00;0.62;4.93;3.30;;;20.80;26.80;;;;;;2262315;61;20350;-63
2021/12/05 03:19:16;0.00;0.00;0.62;0.00;0.00;0.62;3.70;3.33;;;20.80;26.80;;;;;;2265286;61;20372;-62
2021/12/05 03:21:44;0.00;0.00;0.62;0.00;0.00;0.62;5.03;3.50;;;20.80;27.20;;;;;;2265890;61;20564;-63
2021/12/05 03:24:12;0.00;0.00;0.62;0.00;0.00;0.62;5.87;3.40;;;20.70;26.60;;;;;;2265805;61;20615;-61
2021/12/05 03:26:43;0.00;0.00;0.62;0.00;0.00;0.62;4.90;3.53;;;20.70;26.60;;;;;;2261570;61;20342;-62
2021/12/05 03:29:13;0.00;0.00;0.62;0.00;0.00;0.62;6.70;4.17;;;20.60;26.50;;;;;;2262048;61;20706;-62
2021/12/05 03:31:42;0.00;0.00;0.62;0.00;0.00;0.62;3.87;3.33;;;20.60;26.50;;;;;;2262052;61;20429;-62
2021/12/05 03:34:12;0.00;0.00;0.62;0.00;0.00;0.62;4.47;3.40;;;20.50;26.40;;;;;;2261736;61;20385;-62
2021/12/05 03:36:42;0.00;0.00;0.62;0.00;0.00;0.62;4.83;4.33;;;20.50;26.40;;;;;;2261912;61;20428;-62
2021/12/05 03:39:09;0.00;0.00;0.62;0.00;0.00;0.62;6.43;4.43;;;20.50;26.40;;;;;;2261793;61;20342;-63
2021/12/05 03:41:37;0.00;0.00;0.62;0.00;0.00;0.62;5.13;3.47;;;20.40;26.40;;;;;;2261619;61;20377;-63
2021/12/05 03:44:07;0.00;0.00;0.62;0.00;0.00;0.62;5.57;4.50;;;20.40;26.40;;;;;;2262023;61;20355;-62
2021/12/05 03:46:34;0.00;0.00;0.62;0.00;0.00;0.62;7.03;4.37;;;20.40;26.40;;;;;;2261846;61;20353;-62
2021/12/05 03:49:06;0.00;0.00;0.62;0.00;0.00;0.62;7.40;4.60;;;20.40;26.50;;;;;;2261580;61;20556;-63
2021/12/05 03:51:37;0.00;0.00;0.62;0.00;0.00;0.62;5.47;4.03;;;20.30;26.50;;;;;;2265759;61;20699;-62
2021/12/05 03:54:08;0.00;0.00;0.62;0.00;0.00;0.62;6.67;5.03;;;20.30;26.40;;;;;;2261803;61;20350;-63
2021/12/05 03:56:37;0.00;0.00;0.62;0.00;0.00;0.62;6.97;5.30;;;20.30;26.40;;;;;;2261907;61;20388;-63
2021/12/05 03:59:08;0.00;0.00;0.62;0.00;0.00;0.62;8.50;4.80;;;20.20;26.30;;;;;;2262012;61;20342;-61
2021/12/05 04:01:35;0.00;0.00;0.62;0.00;0.00;0.62;10.47;6.00;;;20.20;26.40;;;;;;2261381;61;20453;-61
2021/12/05 04:04:02;0.00;0.00;0.62;0.00;0.00;0.62;7.50;4.60;;;20.20;26.40;;;;;;2265923;61;20343;-62
2021/12/05 04:06:30;0.00;0.00;0.62;0.00;0.00;0.62;6.10;5.00;;;20.10;26.30;;;;;;2261910;61;20346;-62
2021/12/05 04:09:01;0.00;0.00;0.62;0.00;0.00;0.62;7.00;5.13;;;20.10;26.40;;;;;;2261173;61;20445;-63
2021/12/05 04:11:37;0.00;0.00;0.62;0.00;0.00;0.62;9.67;5.13;;;20.00;26.30;;;;;;2262103;61;20389;-62
2021/12/05 04:14:08;0.00;0.00;0.62;0.00;0.00;0.62;5.03;4.47;;;20.00;26.40;;;;;;2265486;61;20353;-63
2021/12/05 04:16:35;0.00;0.00;0.62;0.00;0.00;0.62;6.33;5.30;;;20.00;26.50;;;;;;2261279;61;20366;-63
2021/12/05 04:19:03;0.00;0.00;0.62;0.00;0.00;0.62;6.40;4.47;;;19.90;26.40;;;;;;2262032;61;20417;-63
2021/12/05 04:21:31;0.00;0.00;0.62;0.00;0.00;0.62;7.00;4.70;;;19.90;26.40;;;;;;2261472;61;20377;-64
2021/12/05 04:23:59;0.00;0.00;0.62;0.00;0.00;0.62;7.87;5.10;;;19.90;26.50;;;;;;2261329;61;20374;-62
2021/12/05 04:26:26;0.00;0.00;0.62;0.00;0.00;0.62;6.93;4.50;;;19.80;26.40;;;;;;2262175;61;20374;-63
2021/12/05 04:28:53;0.00;0.00;0.62;0.00;0.00;0.62;8.77;5.23;;;19.80;26.50;;;;;;2261166;61;20343;-63
2021/12/05 04:31:21;0.00;0.00;0.62;0.00;0.00;0.62;5.73;4.43;;;19.80;26.60;;;;;;2261498;61;20366;-62
2021/12/05 04:33:50;0.00;0.00;0.62;0.00;0.00;0.62;7.63;4.80;;;19.80;26.50;;;;;;2262107;61;20375;-62
2021/12/05 04:36:17;0.00;0.00;0.62;0.00;0.00;0.62;5.77;4.47;;;19.70;26.40;;;;;;2261359;61;20738;-62
2021/12/05 04:38:43;0.00;0.00;0.62;0.00;0.00;0.62;5.20;4.03;;;19.70;26.40;;;;;;2261333;61;20364;-63
2021/12/05 04:41:11;0.00;0.00;0.62;0.00;0.00;0.62;4.50;3.60;;;19.70;26.40;;;;;;2262057;61;20646;-61
2021/12/05 04:43:38;0.00;0.00;0.62;0.00;0.00;0.62;5.00;3.63;;;19.60;26.30;;;;;;2261418;61;20350;-63
2021/12/05 04:46:07;0.00;0.00;0.62;0.00;0.00;0.62;5.83;4.30;;;19.60;26.30;;;;;;2261381;61;20346;-63
2021/12/05 04:48:35;0.00;0.00;0.62;0.00;0.00;0.62;5.70;4.67;;;19.60;26.30;;;;;;2265683;61;20353;-63
2021/12/05 04:51:04;0.00;0.00;0.62;0.00;0.00;0.62;5.83;3.90;;;19.60;26.30;;;;;;2261291;61;20457;-63
2021/12/05 04:53:30;0.00;0.00;0.62;0.00;0.00;0.62;6.00;3.93;;;19.60;26.30;;;;;;2265143;61;20350;-62
2021/12/05 04:55:58;0.00;0.00;0.62;0.00;0.00;0.62;6.03;3.97;;;19.60;26.30;;;;;;2262004;61;20450;-63
2021/12/05 04:58:24;0.00;0.00;0.62;0.00;0.00;0.62;6.83;3.53;;;19.60;26.30;;;;;;2265202;61;20354;-63
2021/12/05 05:00:52;0.00;0.00;0.62;0.00;0.00;0.62;6.60;3.90;;;19.60;26.30;;;;;;2261338;61;20358;-63
2021/12/05 05:03:18;0.00;0.00;0.62;0.00;0.00;0.62;4.20;3.73;;;19.50;26.30;;;;;;2265830;61;20436;-62
2021/12/05 05:05:54;0.00;0.00;0.62;0.00;0.00;0.62;6.13;3.50;;;19.50;26.30;;;;;;2265267;61;20345;-62
2021/12/05 05:08:21;0.00;0.00;0.62;0.00;0.00;0.62;5.80;3.67;;;19.50;26.30;;;;;;2265027;61;20354;-62
2021/12/05 05:10:48;0.00;0.00;0.62;0.00;0.00;0.62;4.67;3.50;;;19.50;26.30;;;;;;2265640;61;20381;-63
2021/12/05 05:13:14;0.00;0.00;0.62;0.00;0.00;0.62;5.50;3.10;;;19.50;26.30;;;;;;2265121;61;20346;-62
2021/12/05 05:15:40;0.00;0.00;0.62;0.00;0.00;0.62;5.00;3.13;;;19.50;26.30;;;;;;2265210;61;20372;-63
2021/12/05 05:18:08;0.00;0.00;0.62;0.00;0.00;0.62;6.00;3.20;;;19.50;26.30;;;;;;2265643;61;20349;-62
2021/12/05 05:20:40;0.00;0.00;0.62;0.00;0.00;0.62;5.80;3.43;;;19.50;26.40;;;;;;2265547;61;20373;-62
2021/12/05 05:44:41;0.00;0.00;0.62;0.00;0.00;0.62;4.53;2.70;;;19.40;26.40;;;;;;2266167;61;20404;-62
2021/12/05 05:47:13;0.00;0.00;0.62;0.00;0.00;0.62;7.73;3.00;;;19.50;26.40;;;;;;2265511;61;20585;-61
2021/12/05 05:52:11;0.00;0.00;0.62;0.00;0.00;0.62;5.03;2.67;;;19.40;26.40;;;;;;2266015;61;20342;-62
2021/12/05 05:54:39;0.00;0.00;0.62;0.00;0.00;0.62;3.57;2.57;;;19.40;26.30;;;;;;2265574;61;20353;-63
2021/12/05 05:59:53;0.00;0.00;0.62;0.00;0.00;0.62;4.07;2.20;;;19.40;26.30;;;;;;2265833;61;20366;-62
2021/12/05 06:05:05;0.00;0.00;0.62;0.00;0.00;0.62;4.37;3.10;;;19.40;26.40;;;;;;2265805;61;20424;-62
2021/12/05 06:07:31;0.00;0.00;0.62;0.00;0.00;0.62;3.87;2.50;;;19.40;26.40;;;;;;2265463;61;20368;-62
2021/12/05 06:09:58;0.00;0.00;0.62;0.00;0.00;0.62;4.40;2.73;;;19.40;26.40;;;;;;2266205;61;20702;-63
2021/12/05 06:12:24;0.00;0.00;0.62;0.00;0.00;0.62;5.17;2.80;;;19.40;26.40;;;;;;2265994;61;20365;-64
2021/12/05 06:14:50;0.00;0.00;0.62;0.00;0.00;0.62;4.87;2.53;;;19.40;26.40;;;;;;2265412;61;20434;-63
2021/12/05 06:17:18;0.00;0.00;0.62;0.00;0.00;0.62;3.70;2.60;;;19.40;26.40;;;;;;2266081;61;20421;-61
2021/12/05 06:19:44;0.00;0.00;0.62;0.00;0.00;0.62;3.63;2.40;;;19.40;26.50;;;;;;2265920;61;20362;-62
2021/12/05 06:22:13;0.00;0.00;0.62;0.00;0.00;0.62;5.17;2.40;;;19.40;26.50;;;;;;2261853;61;20591;-62
2021/12/05 06:24:39;0.00;0.00;0.62;0.00;0.00;0.62;4.57;2.60;;;19.40;26.50;;;;;;2266177;61;20548;-63
2021/12/05 06:27:07;0.00;0.00;0.62;0.00;0.00;0.62;4.63;2.90;;;19.40;26.50;;;;;;2266007;61;20353;-61
2021/12/05 06:29:39;0.00;0.00;0.62;0.00;0.00;0.62;6.27;2.77;;;19.40;26.50;;;;;;2265610;61;20663;-60
2021/12/05 06:37:47;0.00;0.00;0.62;0.00;0.00;0.62;4.40;3.00;;;19.40;26.50;;;;;;2265711;61;20377;-63
2021/12/05 06:43:01;0.00;0.00;0.62;0.00;0.00;0.62;6.80;2.20;;;19.40;26.50;;;;;;2265867;61;20400;-63
2021/12/05 06:48:11;0.00;0.00;0.62;0.00;0.00;0.62;3.23;2.17;;;19.40;26.50;;;;;;2265858;61;20378;-62
2021/12/05 06:50:37;0.00;0.00;0.62;0.00;0.00;0.62;3.53;2.43;;;19.40;26.50;;;;;;2265556;61;20362;-62
2021/12/05 06:53:06;0.00;0.00;0.62;0.00;0.00;0.62;4.00;2.53;;;19.40;26.50;;;;;;2265551;61;20354;-61
2021/12/05 06:55:32;0.00;0.00;0.62;0.00;0.00;0.62;5.00;2.00;;;19.30;26.40;;;;;;2258785;61;20370;-60
2021/12/05 06:58:00;0.00;0.00;0.62;0.00;0.00;0.62;6.43;2.33;;;19.40;26.50;;;;;;2265708;61;20430;-63
2021/12/05 07:00:29;0.00;0.00;0.62;0.00;0.00;0.62;3.57;1.97;;;19.40;26.50;;;;;;2265295;61;20366;-63
2021/12/05 07:02:55;0.00;0.00;0.62;0.00;0.00;0.62;4.63;2.50;;;19.40;26.50;;;;;;2265821;61;20357;-62
2021/12/05 07:05:38;0.00;0.00;0.62;0.00;0.00;0.62;6.50;3.20;;;19.40;26.50;;;;;;2265621;61;20346;-61
2021/12/05 07:08:05;0.00;0.00;0.62;0.00;0.00;0.62;6.70;4.00;;;19.40;26.50;;;;;;2265375;61;20346;-63
2021/12/05 07:10:38;0.00;0.00;0.62;0.00;0.00;0.62;6.10;4.60;;;19.40;26.50;;;;;;2265686;61;20618;-63
2021/12/05 07:15:47;0.00;0.00;0.62;0.00;0.00;0.62;6.10;4.67;;;19.40;26.40;;;;;;2265333;61;20412;-62
2021/12/05 07:21:11;0.00;0.00;0.62;0.00;0.00;0.62;10.07;5.33;;;19.40;26.40;;;;;;2265702;61;20362;-61
2021/12/05 07:24:03;0.00;0.00;0.62;0.00;0.00;0.62;7.40;5.47;;;19.40;26.40;;;;;;2265550;61;20346;-62
2021/12/05 07:41:48;0.00;0.00;0.62;0.00;0.00;0.62;8.73;6.13;;;19.40;26.40;;;;;;2265397;61;20380;-62
2021/12/05 07:44:35;0.00;0.00;0.62;0.00;0.00;0.62;9.17;5.67;;;19.40;26.50;;;;;;2265268;61;20423;-60
2021/12/05 07:47:23;0.00;0.00;0.62;0.00;0.00;0.62;7.40;5.57;;;19.40;26.50;;;;;;2265484;61;20435;-60
2021/12/05 07:50:10;0.00;0.00;0.62;0.00;0.00;0.62;8.03;5.93;;;19.40;26.50;;;;;;2265581;61;20416;-60
2021/12/05 07:53:03;0.00;0.00;0.62;0.00;0.00;0.62;8.80;4.43;;;19.40;26.50;;;;;;2265285;61;20376;-62
2021/12/05 07:55:52;0.00;0.00;0.62;0.00;0.00;0.62;7.90;5.10;;;19.40;26.50;;;;;;2262419;61;20449;-62
2021/12/05 08:17:01;0.00;0.00;0.62;0.00;0.00;0.62;6.93;3.90;;;19.30;26.50;;;;;;2265633;61;20602;-62
2021/12/05 08:19:46;0.00;0.00;0.62;0.00;0.00;0.62;7.90;4.40;;;19.30;26.50;;;;;;2265474;61;20500;-62
2021/12/05 08:22:31;0.00;0.00;0.62;0.00;0.00;0.62;5.67;3.90;;;19.30;26.50;;;;;;2265195;61;20361;-64
2021/12/05 08:25:16;0.00;0.00;0.62;0.00;0.00;0.62;4.77;3.60;;;19.30;26.50;;;;;;2265620;61;20365;-62
2021/12/05 08:28:17;0.00;0.00;0.62;0.00;0.00;0.62;6.60;4.83;;;19.30;26.50;;;;;;2265262;61;20357;-62
2021/12/05 08:30:47;0.00;0.00;0.62;0.00;0.00;0.62;6.87;3.57;;;19.30;26.50;;;;;;2265717;61;20370;-61
2021/12/05 08:33:53;0.00;0.00;0.62;0.00;0.00;0.62;5.50;4.00;;;19.30;26.50;;;;;;2265591;61;20717;-61
2021/12/05 08:37:09;0.00;0.00;0.62;0.00;0.00;0.62;5.53;3.30;;;19.30;26.50;;;;;;2264994;61;20381;-63
2021/12/05 09:52:02;0.00;0.00;0.62;0.00;0.00;0.62;4.07;2.97;;;19.20;26.50;;;;;;2265362;61;20767;-63
2021/12/05 10:07:25;0.00;0.00;0.62;0.00;0.00;0.62;4.00;2.70;;;19.10;26.60;;;;;;2265928;61;20403;-62
2021/12/05 10:10:24;0.00;0.00;0.62;0.00;0.00;0.62;3.97;2.60;;;19.20;26.70;;;;;;2265803;61;20605;-63
2021/12/05 10:16:18;0.00;0.00;0.62;0.00;0.00;0.62;3.80;2.47;;;19.20;26.70;;;;;;2265895;61;20380;-61
2021/12/05 10:35:07;0.00;0.00;0.62;0.00;0.00;0.62;5.07;2.27;;;19.20;26.90;;;;;;2265579;61;20384;-61
2021/12/05 10:37:53;0.00;0.00;0.62;0.00;0.00;0.62;7.80;2.37;;;19.30;26.90;;;;;;2265902;61;20350;-61
2021/12/05 10:40:46;0.00;0.00;0.62;0.00;0.00;0.62;3.87;1.83;;;19.30;26.90;;;;;;2265726;61;20415;-62
2021/12/05 10:43:33;0.00;0.00;0.62;0.00;0.00;0.62;3.00;1.93;;;19.40;26.90;;;;;;2265682;61;20361;-60
2021/12/05 10:46:24;0.00;0.00;0.62;0.00;0.00;0.62;2.73;1.97;;;19.40;26.90;;;;;;2265703;61;20465;-62
2021/12/05 10:49:15;0.00;0.00;0.62;0.00;0.00;0.62;3.73;2.03;;;19.40;26.90;;;;;;2265397;61;20389;-62
2021/12/05 10:52:01;0.00;0.00;0.62;0.00;0.00;0.62;2.93;2.30;;;19.40;26.90;;;;;;2265821;61;20626;-61
2021/12/05 10:54:55;0.00;0.00;0.62;0.00;0.00;0.62;4.03;2.00;;;19.50;26.90;;;;;;2265928;61;20700;-60
2021/12/05 10:57:49;0.00;0.00;0.62;0.00;0.00;0.62;3.50;2.37;;;19.50;26.90;;;;;;2265485;61;20760;-61
2021/12/05 11:00:36;0.00;0.00;0.62;0.00;0.00;0.62;3.40;2.10;;;19.50;26.90;;;;;;2265613;61;20427;-61
2021/12/05 11:03:22;0.00;0.00;0.62;0.00;0.00;0.62;2.87;2.00;;;19.50;26.90;;;;;;2265812;61;20411;-61
2021/12/05 11:06:39;0.00;0.00;0.62;0.00;0.00;0.62;3.53;1.93;;;19.60;27.00;;;;;;2266156;61;20651;-60
2021/12/05 11:09:25;0.00;0.00;0.62;0.00;0.00;0.62;2.80;1.83;;;19.60;27.00;;;;;;2265513;61;20415;-60
2021/12/05 11:12:14;0.00;0.00;0.62;0.00;0.00;0.62;2.93;1.70;;;19.60;27.00;;;;;;2266487;58;20423;-61
2021/12/05 11:15:02;0.00;0.00;0.62;0.00;0.00;0.62;3.20;1.90;;;19.70;27.20;;;;;;2262614;61;20376;-59
2021/12/05 11:17:50;0.00;0.00;0.62;0.00;0.00;0.62;4.13;2.33;;;19.70;27.20;;;;;;2265276;61;20427;-59
2021/12/05 11:20:36;0.00;0.00;0.62;0.00;0.00;0.62;6.20;2.17;;;19.70;27.20;;;;;;2265118;61;20752;-59
2021/12/05 11:23:21;0.00;0.00;0.62;0.00;0.00;0.62;3.20;1.57;;;19.70;27.10;;;;;;2265509;61;20365;-59
2021/12/05 11:26:16;0.00;0.00;0.62;0.00;0.00;0.62;2.43;1.70;;;19.80;27.20;;;;;;2265180;61;20365;-58
2021/12/05 11:29:01;0.00;0.00;0.62;0.00;0.00;0.62;2.93;1.70;;;19.80;27.20;;;;;;2265673;61;20361;-59
2021/12/05 11:31:51;0.00;0.00;0.62;0.00;0.00;0.62;4.00;1.87;;;19.80;27.20;;;;;;2265094;61;20357;-58
2021/12/05 11:34:37;0.00;0.00;0.62;0.00;0.00;0.62;2.57;1.50;;;19.90;27.20;;;;;;2265296;61;20389;-58
2021/12/05 11:37:22;0.00;0.00;0.62;0.00;0.00;0.62;3.10;1.70;;;19.90;27.20;;;;;;2265802;61;20476;-57
2021/12/05 11:40:08;0.00;0.00;0.62;0.00;0.00;0.62;2.53;1.83;;;19.90;27.20;;;;;;2265095;61;20417;-59
2021/12/05 11:43:01;0.00;0.00;0.62;0.00;0.00;0.62;3.53;1.83;;;19.90;27.20;;;;;;2265876;61;20372;-58
2021/12/05 11:46:07;0.00;0.00;0.62;0.00;0.00;0.62;2.67;1.73;;;20.00;27.20;;;;;;2265407;61;21104;-59
2021/12/05 11:48:54;0.00;0.00;0.62;0.00;0.00;0.62;2.00;1.40;;;20.00;27.20;;;;;;2265061;61;20361;-58
2021/12/05 11:51:44;0.00;0.00;0.62;0.00;0.00;0.62;2.13;1.43;;;20.00;27.20;;;;;;2265742;61;20433;-58
2021/12/05 11:54:33;0.00;0.00;0.62;0.00;0.00;0.62;4.30;2.00;;;20.00;27.20;;;;;;2265197;61;20721;-59
2021/12/05 11:57:22;0.00;0.00;0.62;0.00;0.00;0.62;1.87;1.33;;;20.10;27.20;;;;;;2265351;61;20760;-59
2021/12/05 12:00:15;0.00;0.00;0.62;0.00;0.00;0.62;2.80;1.37;;;20.00;27.10;;;;;;2265488;61;20376;-59
2021/12/05 12:03:00;0.00;0.00;0.62;0.00;0.00;0.62;2.90;1.17;;;20.10;27.20;;;;;;2264688;61;20716;-59
2021/12/05 12:05:48;0.00;0.00;0.62;0.00;0.00;0.62;2.13;1.13;;;20.10;27.20;;;;;;2265622;61;20956;-59
2021/12/05 12:08:34;0.00;0.00;0.62;0.00;0.00;0.62;2.03;1.30;;;20.10;27.20;;;;;;2265009;61;20373;-59
2021/12/05 12:11:19;0.00;0.00;0.62;0.00;0.00;0.62;2.53;1.57;;;20.20;27.20;;;;;;2265101;61;20391;-63
2021/12/05 12:14:05;0.00;0.00;0.62;0.00;0.00;0.62;2.07;1.53;;;20.10;27.20;;;;;;2265553;61;20365;-60
2021/12/05 12:16:51;0.00;0.00;0.62;0.00;0.00;0.62;2.50;1.50;;;20.20;27.20;;;;;;2265177;61;20385;-60
2021/12/05 12:19:36;0.00;0.00;0.62;0.00;0.00;0.62;2.03;1.10;;;20.20;27.20;;;;;;2510235;53;20378;-61
2021/12/05 12:22:26;0.00;0.00;0.62;0.00;0.00;0.62;3.40;2.10;;;20.20;27.10;;;;;;2261366;61;20400;-61
2021/12/05 12:25:17;0.00;0.00;0.62;0.00;0.00;0.62;4.00;1.67;;;20.20;27.10;;;;;;2260995;61;20396;-60
2021/12/05 12:28:03;0.00;0.00;0.62;0.00;0.00;0.62;2.50;1.40;;;20.30;27.20;;;;;;2261400;61;20370;-60
2021/12/05 12:30:55;0.00;0.00;0.62;0.00;0.00;0.62;3.90;1.80;;;20.30;27.10;;;;;;2260833;61;20600;-60
2021/12/05 12:33:46;0.00;0.00;0.62;0.00;0.00;0.62;5.37;1.53;;;20.30;27.00;;;;;;2261047;61;20366;-60
2021/12/05 12:36:36;0.00;0.00;0.62;0.00;0.00;0.62;14.77;1.80;;;20.30;27.00;;;;;;2260925;61;20436;-60
2021/12/05 12:39:34;0.00;0.00;0.62;0.00;0.00;0.62;2.87;1.40;;;20.30;27.00;;;;;;2261216;61;20358;-60
2021/12/05 12:42:23;0.00;0.00;0.62;0.00;0.00;0.62;2.93;1.50;;;20.30;27.00;;;;;;2261511;61;20378;-60
2021/12/05 12:45:21;0.00;0.00;0.62;0.00;0.00;0.62;2.37;1.20;;;20.30;26.90;;;;;;2261227;61;20382;-60
2021/12/05 12:48:12;0.00;0.00;0.62;0.00;0.00;0.62;3.33;1.40;;;20.40;26.90;;;;;;2261037;61;20362;-61
2021/12/05 12:50:57;0.00;0.00;0.62;0.00;0.00;0.62;3.80;1.50;;;20.40;26.90;;;;;;2261341;61;20651;-59
2021/12/05 12:53:42;0.00;0.00;0.62;0.00;0.00;0.62;2.67;1.43;;;20.40;26.90;;;;;;2261226;61;20409;-60
2021/12/05 12:56:27;0.00;0.00;0.62;0.00;0.00;0.62;2.17;1.13;;;20.40;26.90;;;;;;2261086;61;20436;-59
2021/12/05 12:59:17;0.00;0.00;0.62;0.00;0.00;0.62;3.03;1.50;;;20.40;26.90;;;;;;2261272;61;20385;-60
2021/12/05 13:10:01;0.00;0.00;0.62;0.00;0.00;0.62;3.70;1.77;;;20.40;26.90;;;;;;2261096;61;20353;-60
2021/12/05 13:11:04;0.00;0.00;0.62;0.00;0.00;0.62;2.40;1.27;;;20.40;26.90;;;;;;2260828;61;20432;-60
2021/12/05 13:14:01;0.00;0.00;0.62;0.00;0.00;0.62;6.50;1.33;;;20.40;26.90;;;;;;2261181;61;20420;-60
2021/12/05 13:16:48;0.00;0.00;0.62;0.00;0.00;0.62;4.73;1.30;;;20.40;26.90;;;;;;2260700;61;20608;-60
2021/12/05 13:19:33;0.00;0.00;0.62;0.00;0.00;0.62;3.37;1.40;;;20.40;26.90;;;;;;2497130;53;20374;-60
2021/12/05 13:22:18;0.00;0.00;0.62;0.00;0.00;0.62;3.03;1.23;;;20.40;26.90;;;;;;2261113;61;20350;-60
2021/12/05 13:25:09;0.00;0.00;0.62;0.00;0.00;0.62;1.97;1.27;;;20.50;26.90;;;;;;2260790;61;20401;-60
2021/12/05 13:27:55;0.00;0.00;0.62;0.00;0.00;0.62;2.10;1.10;;;20.50;26.90;;;;;;2258239;61;20770;-60
2021/12/05 13:30:43;0.00;0.00;0.62;0.00;0.00;0.62;3.73;1.20;;;20.50;26.90;;;;;;2260939;61;20932;-60
2021/12/05 13:33:33;0.00;0.00;0.62;0.00;0.00;0.62;2.07;1.13;;;20.50;26.90;;;;;;2260855;61;20442;-60
2021/12/05 13:36:30;0.00;0.00;0.62;0.00;0.00;0.62;2.27;1.00;;;20.50;26.90;;;;;;2261479;61;20389;-61
2021/12/05 13:39:38;0.00;0.00;0.62;0.00;0.00;0.62;1.80;1.27;;;20.50;26.90;;;;;;2260254;61;20780;-60
2021/12/05 13:42:26;0.00;0.00;0.62;0.00;0.00;0.62;2.27;1.27;;;20.50;26.90;;;;;;2262067;61;20570;-60
2021/12/05 13:45:17;0.00;0.00;0.62;0.00;0.00;0.62;1.67;1.00;;;20.50;26.90;;;;;;2261653;61;20362;-61
2021/12/05 13:48:20;0.00;0.00;0.62;0.00;0.00;0.62;2.40;1.63;;;20.50;27.50;;;;;;2261469;61;20362;-61
2021/12/05 13:51:06;0.00;0.00;0.62;0.00;0.00;0.62;2.87;1.50;;;20.50;26.90;;;;;;2262072;61;20385;-60
2021/12/05 13:53:53;0.00;0.00;0.62;0.00;0.00;0.62;1.70;1.00;;;20.50;26.90;;;;;;2261203;61;20362;-61
2021/12/05 13:56:38;0.00;0.00;0.62;0.00;0.00;0.62;2.30;1.27;;;20.50;26.90;;;;;;2262092;61;20604;-58
2021/12/05 13:59:26;0.00;0.00;0.62;0.00;0.00;0.62;1.80;1.13;;;20.50;27.00;;;;;;2261607;61;20749;-60
2021/12/05 14:02:13;0.00;0.00;0.62;0.00;0.00;0.62;2.23;1.20;;;20.60;27.00;;;;;;2261596;61;20365;-60
2021/12/05 14:05:27;0.00;0.00;0.62;0.00;0.00;0.62;1.93;0.93;;;20.60;27.00;;;;;;2262025;61;20592;-60
2021/12/05 14:08:13;0.00;0.00;0.62;0.00;0.00;0.62;3.90;1.40;;;20.60;27.00;;;;;;2261658;61;20374;-60
2021/12/05 14:10:58;0.00;0.00;0.62;0.00;0.00;0.62;1.70;1.00;;;20.60;27.00;;;;;;2262196;61;20408;-60
2021/12/05 14:13:43;0.00;0.00;0.62;0.00;0.00;0.62;1.93;1.17;;;20.60;27.00;;;;;;2258399;61;20396;-60
2021/12/05 14:16:34;0.00;0.00;0.62;0.00;0.00;0.62;1.83;1.20;;;20.60;27.00;;;;;;2261484;61;20465;-60
2021/12/05 14:19:22;0.00;0.00;0.62;0.00;0.00;0.62;1.50;1.03;;;20.60;27.00;;;;;;2261755;61;20631;-60
2021/12/05 14:22:11;0.00;0.00;0.62;0.00;0.00;0.62;1.53;1.00;;;20.60;27.00;;;;;;2261626;61;20430;-60
2021/12/05 14:25:03;0.00;0.00;0.62;0.00;0.00;0.62;1.80;0.90;;;20.60;27.00;;;;;;2261478;61;20408;-60
2021/12/05 14:27:51;0.00;0.00;0.62;0.00;0.00;0.62;1.60;1.00;;;20.60;27.00;;;;;;2261309;61;20366;-60
2021/12/05 14:30:38;0.00;0.00;0.62;0.00;0.00;0.62;1.90;0.73;;;20.60;27.00;;;;;;2261533;61;20437;-60
2021/12/05 14:33:23;0.00;0.00;0.62;0.00;0.00;0.62;2.40;1.00;;;20.60;27.00;;;;;;2262049;61;20409;-60
2021/12/05 14:36:19;0.00;0.00;0.62;0.00;0.00;0.62;2.23;1.37;;;20.60;27.00;;;;;;2261566;61;20592;-61
2021/12/05 14:39:21;0.00;0.00;0.62;0.00;0.00;0.62;1.40;0.80;;;20.60;27.00;;;;;;2261135;61;20477;-60
2021/12/05 14:42:11;0.00;0.00;0.62;0.00;0.00;0.62;1.53;0.90;;;20.60;27.00;;;;;;2261010;61;20361;-60
2021/12/05 14:45:02;0.00;0.00;0.62;0.00;0.00;0.62;1.50;0.90;;;20.60;27.00;;;;;;2261410;61;20362;-60
2021/12/05 14:47:48;0.00;0.00;0.62;0.00;0.00;0.62;1.67;1.20;;;20.60;27.00;;;;;;2261566;61;20358;-60
2021/12/05 14:50:36;0.00;0.00;0.62;0.00;0.00;0.62;2.07;1.00;;;20.70;27.10;;;;;;2261478;61;20401;-60
2021/12/05 14:53:24;0.00;0.00;0.62;0.00;0.00;0.62;1.50;1.03;;;20.70;27.10;;;;;;2261259;61;20420;-60
2021/12/05 14:56:08;0.00;0.00;0.62;0.00;0.00;0.62;1.80;0.90;;;20.60;27.00;;;;;;2261607;61;20612;-60
2021/12/05 14:59:05;0.00;0.00;0.62;0.00;0.00;0.62;1.53;0.80;;;20.70;27.10;;;;;;2261675;61;20365;-60
2021/12/05 15:01:57;0.00;0.00;0.62;0.00;0.00;0.62;1.50;0.80;;;20.70;27.10;;;;;;2261587;61;20682;-60
2021/12/05 15:04:46;0.00;0.00;0.62;0.00;0.00;0.62;2.00;0.93;;;20.70;27.10;;;;;;2261732;61;20583;-60
2021/12/05 15:07:30;0.00;0.00;0.62;0.00;0.00;0.62;2.03;0.87;;;20.70;27.10;;;;;;2261805;61;20612;-60
2021/12/05 15:10:20;0.00;0.00;0.62;0.00;0.00;0.62;1.43;0.87;;;20.70;27.10;;;;;;2261399;61;20448;-60
2021/12/05 15:13:05;0.00;0.00;0.62;0.00;0.00;0.62;1.77;0.83;;;20.70;27.10;;;;;;2261665;61;20354;-60
2021/12/05 15:15:51;0.00;0.00;0.62;0.00;0.00;0.62;1.80;0.90;;;20.70;27.00;;;;;;2261285;61;20417;-60
2021/12/05 15:18:39;0.00;0.00;0.62;0.00;0.00;0.62;1.40;0.80;;;20.70;27.00;;;;;;2264589;61;20375;-60
2021/12/05 15:21:24;0.00;0.00;0.62;0.00;0.00;0.62;2.17;0.90;;;20.70;27.00;;;;;;2265571;61;20457;-60
2021/12/05 15:24:13;0.00;0.00;0.62;0.00;0.00;0.62;2.07;0.87;;;20.70;27.10;;;;;;2265156;61;20349;-59
2021/12/05 15:27:01;0.00;0.00;0.62;0.00;0.00;0.62;1.70;1.10;;;20.70;27.00;;;;;;2265794;61;20376;-61
2021/12/05 15:29:48;0.00;0.00;0.62;0.00;0.00;0.62;2.37;1.00;;;20.70;27.00;;;;;;2265310;61;20423;-61